0,00 -
Pkt Einheit
Index Typ
0,00% %
0,00 abs
ISIN: US78378X1072 WKN: A0AET0 Börse: JFD Bank Datum: -

S&P 500 Index

Name Kurs +/- abs. +/- % Zeit 1 Woche % 1 Monat % 3 Monate % 6 Monate % 1 Jahr % 10 Jahre %
3M Co. 152,850 1,400 0,92 10.07.20 -2,67 -6,74 3,43 -15,30 -7,75 86,04
Abbott Laboratories 93,040 -0,630 -0,67 10.07.20 0,88 0,95 8,14 9,00 8,97 314,89
AbbVie Inc. 96,830 -1,110 -1,13 10.07.20 -2,07 -0,07 21,42 8,72 35,14
Abiomed Inc. 264,510 -1,170 -0,44 10.07.20 0,25 5,45 65,24 39,91 3,40 2.365,14
Accenture PLC 220,260 0,950 0,43 10.07.20 2,10 5,17 23,80 6,07 14,89 458,75
Activision Blizzard Inc. 81,270 0,630 0,78 10.07.20 4,85 10,09 34,42 37,86 73,51 632,82
Adobe Inc. 466,200 5,360 1,16 10.07.20 5,25 14,60 46,27 37,19 51,87 1.613,97
Advance Auto Parts Inc. 134,450 0,700 0,52 10.07.20 -5,21 -4,22 25,82 -9,77 -14,05 162,24
Advanced Micro Devices Inc. 55,880 -1,375 -2,40 10.07.20 6,76 -2,72 15,50 16,02 65,37 661,31
AES Corp., The 14,360 0,440 3,16 10.07.20 -0,83 9,04 -2,45 -28,84 -15,48 40,37
AFLAC Inc. 34,870 0,900 2,65 10.07.20 -1,11 -10,80 -8,43 -33,03 -38,29 45,05
Agilent Technologies Inc. 89,420 -0,500 -0,56 10.07.20 0,83 -0,43 14,16 2,09 21,88 333,55
Air Products & Chemicals Inc. 273,190 1,590 0,59 10.07.20 10,42 10,22 24,56 17,75 20,74 291,73
Akamai Technologies Inc. 114,260 0,040 0,04 10.07.20 1,01 10,02 19,78 22,16 39,80 162,85
Alaska Air Group Inc. 35,730 1,290 3,75 10.07.20 -2,08 -13,86 13,03 -45,77 -43,23
Albemarle Corp. 78,890 3,140 4,15 10.07.20 0,42 -5,93 17,71 9,42 11,92 89,96
Alexandria Real Est. Equ. Inc. 160,810 -1,440 -0,89 10.07.20 -2,56 1,83 1,91 1,41 7,98
Alexion Pharmaceuticals Inc. 108,820 0,350 0,32 10.07.20 -3,10 -6,46 13,08 -0,60 -12,50 317,25
Align Technology Inc. 273,290 -0,790 -0,29 10.07.20 -2,37 2,14 41,46 -6,83 -4,66 1.792,59
Allegion PLC 101,510 0,980 0,97 10.07.20 -0,86 -6,89 6,45 -17,76 -7,14
Alliant Energy Corp. 49,040 0,790 1,64 10.07.20 -0,77 -3,31 -7,72 -10,95 -2,64
Allstate Corp., The 86,970 1,150 1,34 10.07.20 -7,57 -14,72 -13,32 -23,34 -16,58 195,41
Alphabet Inc. (Class A) 1.539,010 20,350 1,34 10.07.20 4,70 5,07 27,55 7,70 34,89 558,40
Alphabet Inc. (Class C) 1.541,740 30,750 2,04 10.07.20 5,26 5,18 27,26 7,85 35,18
Altria Group Inc. 40,270 1,670 4,33 10.07.20 2,21 -3,71 -1,56 -19,81 -17,82 89,06
Amazon.com Inc. 3.200,000 17,370 0,55 10.07.20 10,72 20,87 56,65 69,93 58,62 2.628,98
AMCOR PLC 10,510 0,140 1,35 10.07.20 -0,85 7,03 14,74 0,57 -4,11
Ameren Corp. 74,540 0,890 1,21 10.07.20 1,79 -0,43 -5,65 -3,21 -2,75 199,36
American Airlines Group Inc. 11,940 0,760 6,80 10.07.20 -4,48 -29,85 -4,56 -56,30 -63,75 -13,60
American Electric Power Co.Inc 84,150 2,130 2,60 10.07.20 1,98 -1,43 -2,50 -10,80 -7,33 141,53
American Express Co. 93,230 2,660 2,94 10.07.20 -1,17 -12,18 -1,68 -26,75 -26,53 118,95
American International Grp Inc 30,100 2,100 7,50 10.07.20 0,60 -14,39 13,41 -42,15 -45,99 -16,16
American Tower Corp. 264,350 -1,250 -0,47 10.07.20 0,05 -0,37 1,83 14,54 24,97 474,55
American Water Works Co. Inc. 133,390 2,700 2,07 10.07.20 1,78 1,78 1,24 8,84 12,37 528,31
Ameriprise Financial Inc. 148,580 5,290 3,69 10.07.20 2,15 -3,55 23,33 -12,17 0,18 280,97
AmerisourceBergen Corp. 97,050 0,660 0,68 10.07.20 -3,04 0,10 10,52 11,50 8,68 204,81
AMETEK Inc. 86,900 0,640 0,74 10.07.20 -2,32 -6,71 11,08 -13,76 -2,99 360,23
Amgen Inc. 249,040 -2,620 -1,04 10.07.20 -3,56 9,65 14,13 4,52 36,63 373,82
Amphenol Corp. 94,930 0,440 0,47 10.07.20 -0,98 -5,39 15,90 -12,36 -2,66 367,18
Analog Devices Inc. 124,500 0,250 0,20 10.07.20 2,69 1,32 26,02 5,00 9,20 324,91
Ansys Inc. 301,650 -3,040 -1,00 10.07.20 1,24 5,47 26,79 15,66 43,95 615,66
Anthem Inc. 255,000 0,000 0,00 10.07.20 -4,49 -11,62 5,17 -17,14 -11,43 398,34
AON PLC 197,560 3,100 1,59 10.07.20 3,19 2,27 2,87 -5,05 -0,13 415,28
Apache Corp. 12,710 0,630 5,22 10.07.20 -4,15 -14,30
Apartment Inv. & Managem. Co. 37,190 0,430 1,17 10.07.20 -4,79 -10,06 -6,96 -27,81 -28,96 83,29
Apple Inc. 383,680 0,950 0,25 10.07.20 5,37 8,74 43,17 23,64 88,79 934,19
Applied Materials Inc. 62,590 -0,900 -1,42 10.07.20 2,61 4,56 26,21 1,82 39,96 408,86
Aptiv PLC 76,280 0,890 1,18 10.07.20 -0,69 -7,46 22,58 -14,78 -1,60
Archer Daniels Midland Co. 39,380 1,570 4,15 10.07.20 -0,46 -4,74 4,79 -10,40 -5,79 47,38
Arista Networks Inc. 216,110 -2,680 -1,22 10.07.20 2,66 -7,16 2,95 4,17 -20,07
Assurant Inc. 100,370 2,810 2,88 10.07.20 -0,13 -12,29 -10,69 -24,21 -8,76 179,74
AT & T Inc. 30,130 0,590 2,00 10.07.20 0,17 -6,25 -1,95 -21,88 -10,75 21,35
Atmos Energy Corp. 99,090 1,400 1,43 10.07.20 -2,07 -4,48 -5,81 -11,04 -7,23
Autodesk Inc. 244,240 -3,960 -1,60 10.07.20 1,70 3,23 48,11 26,92 41,39 879,70
Automatic Data Processing Inc. 147,170 1,440 0,99 10.07.20 -2,24 -5,68 3,26 -13,98 -10,56 328,58
AutoZone Inc. 1.113,590 5,830 0,53 10.07.20 -3,08 -1,18 18,36 -1,65 -3,04 456,46
Avalonbay Communities Inc. 152,740 1,100 0,73 10.07.20 -4,49 -10,86 -8,74 -26,73 -28,55 54,31
Avery Dennison Corp. 111,040 0,430 0,39 10.07.20 -5,09 -8,58 -3,47 -13,59 -3,11 220,74
Baker Hughes Co. 15,050 0,400 2,73 10.07.20 -2,34 -12,80 17,03 -39,46 -40,70
Ball Corp. 72,400 0,650 0,91 10.07.20 0,82 -0,58 3,52 9,25 2,80 433,24
Bank of America Corp. 24,020 1,250 5,49 10.07.20 3,13 -9,70 -3,38 -30,86 -17,23 58,97
Baxter International Inc. 85,230 -0,460 -0,54 10.07.20 -2,27 -1,85 -1,91 -0,78 3,79 259,45
Becton, Dickinson & Co. 257,370 -1,240 -0,48 10.07.20 5,04 8,53 4,01 -6,23 1,54 270,53
Berkley, W.R. Corp. 57,810 2,010 3,60 10.07.20 2,37 -3,83 -0,87 -14,81 -14,72
Berkshire Hathaway Inc. 182,900 4,100 2,29 10.07.20 2,28 -4,50 -5,64 -19,29 -14,54 129,34
Best Buy Co. Inc. 84,900 -0,050 -0,06 10.07.20 -2,92 3,92 28,66 -6,34 18,03 147,02
Bio-Rad Laboratories Inc. 477,660 -0,380 -0,08 10.07.20 4,21 1,88 21,50 24,55 56,84
Biogen Inc. 278,880 0,180 0,06 10.07.20 5,19 -5,54 -13,14 -5,95 19,98 439,32
Bk of New York MellonCorp.,The 38,380 1,230 3,31 10.07.20 1,16 -3,93 3,34 -24,06 -10,83 46,32
Blackrock Inc. 554,080 4,640 0,84 10.07.20 0,42 -0,71 17,53 8,18 16,52 257,54
Block H. & R. Inc. 13,960 0,810 6,16 10.07.20 0,14 -26,25 -6,87 -40,97 -50,91 -4,38
Boeing Co. 178,440 5,160 2,98 10.07.20 -1,31 -12,28 17,52 -45,91 -49,35 175,97
Booking Holdings Inc. 1.707,400 37,120 2,22 10.07.20 2,24 -1,49 20,19 -18,18 -8,67 736,59
BorgWarner Inc. 35,510 1,110 3,23 10.07.20 0,91 -0,17 37,96 -14,27 -9,48 77,86
Boston Properties Inc. 87,390 2,330 2,74 10.07.20 -4,54 -12,72 -17,56 -35,31 -34,72 16,16
Boston Scientific Corp. 34,680 0,180 0,52 10.07.20 -1,98 -7,50 -5,84 -24,06 -19,14 436,84
Bristol-Myers Squibb Co. 57,430 -0,680 -1,17 10.07.20 -2,89 -4,54 -2,51 -11,96 24,96 124,34
Broadcom Inc. 319,440 -2,060 -0,64 10.07.20 1,26 1,40 25,62 6,76 16,37 1.351,34
Broadridge Financial Solutions 126,060 -1,510 -1,18 10.07.20 -1,68 3,51 19,03 -1,20 -3,89
Brown-Forman Corp. Class B 64,800 1,550 2,45 10.07.20 0,57 -5,25 3,04 -3,69 15,00 217,58
C.H. Robinson Worldwide Inc. 82,210 1,340 1,66 10.07.20 3,83 0,01 12,28 2,61 0,02 44,08
Cabot Oil & Gas Corp. 17,600 0,570 3,35 10.07.20 -0,79 -13,00 -6,78 0,63 -26,76 110,21
Cadence Design Systems Inc. 100,970 -0,560 -0,55 10.07.20 3,22 8,36 40,92 38,26 34,45 1.566,17
Campbell Soup Co. 50,280 0,870 1,76 10.07.20 1,95 2,76 5,30 5,34 21,45 38,51
Capital One Financial Corp. 60,800 2,450 4,20 10.07.20 -0,57 -15,32 1,15 -40,13 -32,56 39,19
Cardinal Health Inc. 49,360 0,480 0,98 10.07.20 -4,71 -11,01 -2,12 -2,51 4,00 42,62
Carmax Inc. 88,190 1,960 2,27 10.07.20 -1,15 -4,13 32,62 -1,01 0,89 355,76
Carnival Corp. 16,160 1,580 10,84 10.07.20 1,76 -21,48 30,11 -66,92 -64,49 -49,69
Carrier Global Corp. 24,890 0,980 4,10 10.07.20 8,64 12,12 68,40
Caterpillar Inc. 128,010 2,280 1,81 10.07.20 0,23 -3,34 2,38 -12,40 -3,49 97,79
Cboe Global Markets Inc. 91,550 1,360 1,51 10.07.20 -3,72 -9,69 -2,00 -20,98 -18,04
CBRE Group Inc. 44,200 0,330 0,75 10.07.20 -2,88 -13,89 -3,09 -26,63 -15,07 217,99
CDW Corp. 113,840 1,330 1,18 10.07.20 -2,79 -6,47 7,13 -20,03 1,23
Celanese Corp. (Del.) 86,450 2,380 2,83 10.07.20 -2,28 -8,59 3,03 -26,12 -17,19
Centene Corp. 62,840 -0,470 -0,74 10.07.20 -5,53 -2,44 -5,39 -2,54 22,71
CenterPoint Energy Inc. 19,270 0,320 1,69 10.07.20 -0,98 4,84 8,20 -26,73 -33,57 37,15
CenturyLink Inc. 9,910 0,280 2,91 10.07.20 1,23 -7,47 -6,95 -23,71 -16,93 -71,23
Cerner Corp. 69,930 0,300 0,43 10.07.20 0,03 -2,70 2,27 -4,83 -7,60 248,65
CF Industries Holdings Inc. 28,120 1,220 4,54 10.07.20 -4,29 -8,94 -9,32 -37,19 -36,41 89,39
Charter Communications Inc. 537,920 7,730 1,46 10.07.20 3,91 0,77 15,28 6,51 32,10 1.385,97
Zum Index